sensor_id;sensor_type;location;lat;lon;timestamp;pressure;altitude;pressure_sealevel;temperature;humidity
60355;BME280;46198;51.464;-0.066;2023-04-06T00:00:14;101455.03;;;9.50;100.00
60355;BME280;46198;51.464;-0.066;2023-04-06T00:02:43;101454.38;;;9.48;100.00
60355;BME280;46198;51.464;-0.066;2023-04-06T00:05:12;101439.78;;;9.49;100.00
60355;BME280;46198;51.464;-0.066;2023-04-06T00:07:40;101440.22;;;9.52;100.00
60355;BME280;46198;51.464;-0.066;2023-04-06T00:10:08;101445.44;;;9.54;100.00
60355;BME280;46198;51.464;-0.066;2023-04-06T00:12:36;101438.28;;;9.46;100.00
60355;BME280;46198;51.464;-0.066;2023-04-06T00:15:05;101440.81;;;9.48;100.00
60355;BME280;46198;51.464;-0.066;2023-04-06T00:17:33;101429.59;;;9.51;100.00
60355;BME280;46198;51.464;-0.066;2023-04-06T00:20:01;101423.34;;;9.57;100.00
60355;BME280;46198;51.464;-0.066;2023-04-06T00:22:30;101431.25;;;9.52;100.00
60355;BME280;46198;51.464;-0.066;2023-04-06T00:24:58;101428.34;;;9.53;100.00
60355;BME280;46198;51.464;-0.066;2023-04-06T00:27:26;101421.63;;;9.49;100.00
60355;BME280;46198;51.464;-0.066;2023-04-06T00:29:54;101422.25;;;9.45;100.00
60355;BME280;46198;51.464;-0.066;2023-04-06T00:32:23;101416.44;;;9.48;100.00
60355;BME280;46198;51.464;-0.066;2023-04-06T00:34:51;101409.56;;;9.52;100.00
60355;BME280;46198;51.464;-0.066;2023-04-06T00:37:19;101410.19;;;9.54;100.00
60355;BME280;46198;51.464;-0.066;2023-04-06T00:39:49;101404.97;;;9.52;100.00
60355;BME280;46198;51.464;-0.066;2023-04-06T00:42:18;101402.06;;;9.54;100.00
60355;BME280;46198;51.464;-0.066;2023-04-06T00:44:52;101395.28;;;9.37;100.00
60355;BME280;46198;51.464;-0.066;2023-04-06T00:47:20;101395.16;;;9.51;100.00
60355;BME280;46198;51.464;-0.066;2023-04-06T00:49:48;101393.94;;;9.54;100.00
60355;BME280;46198;51.464;-0.066;2023-04-06T00:52:16;101393.69;;;9.49;100.00
60355;BME280;46198;51.464;-0.066;2023-04-06T00:54:46;101380.94;;;9.43;100.00
60355;BME280;46198;51.464;-0.066;2023-04-06T00:57:16;101372.41;;;9.46;100.00
60355;BME280;46198;51.464;-0.066;2023-04-06T00:59:46;101377.66;;;9.54;100.00
60355;BME280;46198;51.464;-0.066;2023-04-06T01:02:14;101371.09;;;9.35;100.00
60355;BME280;46198;51.464;-0.066;2023-04-06T01:04:47;101364.28;;;9.46;100.00
60355;BME280;46198;51.464;-0.066;2023-04-06T01:07:25;101369.88;;;9.44;100.00
60355;BME280;46198;51.464;-0.066;2023-04-06T01:10:04;101358.84;;;9.46;100.00
60355;BME280;46198;51.464;-0.066;2023-04-06T01:12:35;101355.75;;;9.49;100.00
60355;BME280;46198;51.464;-0.066;2023-04-06T01:15:07;101354.47;;;9.45;100.00
60355;BME280;46198;51.464;-0.066;2023-04-06T01:17:40;101346.97;;;9.47;100.00
60355;BME280;46198;51.464;-0.066;2023-04-06T01:20:12;101351.16;;;9.49;100.00
60355;BME280;46198;51.464;-0.066;2023-04-06T01:22:42;101337.75;;;9.41;100.00
60355;BME280;46198;51.464;-0.066;2023-04-06T01:25:11;101333.81;;;9.44;100.00
60355;BME280;46198;51.464;-0.066;2023-04-06T01:27:47;101329.84;;;9.40;100.00
60355;BME280;46198;51.464;-0.066;2023-04-06T01:30:20;101329.44;;;9.43;100.00
60355;BME280;46198;51.464;-0.066;2023-04-06T01:33:07;101320.66;;;9.41;100.00
60355;BME280;46198;51.464;-0.066;2023-04-06T01:35:57;101319.84;;;9.40;100.00
60355;BME280;46198;51.464;-0.066;2023-04-06T01:38:27;101322.31;;;9.35;100.00
60355;BME280;46198;51.464;-0.066;2023-04-06T01:40:55;101318.59;;;9.43;100.00
60355;BME280;46198;51.464;-0.066;2023-04-06T01:43:26;101304.00;;;9.44;100.00
60355;BME280;46198;51.464;-0.066;2023-04-06T01:46:06;101306.53;;;9.45;100.00
60355;BME280;46198;51.464;-0.066;2023-04-06T01:48:38;101301.69;;;9.41;100.00
60355;BME280;46198;51.464;-0.066;2023-04-06T01:51:26;101291.50;;;9.43;100.00
60355;BME280;46198;51.464;-0.066;2023-04-06T01:53:59;101298.78;;;9.42;100.00
60355;BME280;46198;51.464;-0.066;2023-04-06T01:56:45;101293.81;;;9.46;100.00
60355;BME280;46198;51.464;-0.066;2023-04-06T01:59:24;101286.91;;;9.43;100.00
60355;BME280;46198;51.464;-0.066;2023-04-06T02:01:53;101294.22;;;9.49;100.00
60355;BME280;46198;51.464;-0.066;2023-04-06T02:04:23;101282.38;;;9.50;100.00
60355;BME280;46198;51.464;-0.066;2023-04-06T02:06:58;101276.91;;;9.44;100.00
60355;BME280;46198;51.464;-0.066;2023-04-06T02:09:29;101279.84;;;9.49;100.00
60355;BME280;46198;51.464;-0.066;2023-04-06T02:11:58;101277.13;;;9.49;100.00
60355;BME280;46198;51.464;-0.066;2023-04-06T02:14:29;101263.16;;;9.45;100.00
60355;BME280;46198;51.464;-0.066;2023-04-06T02:16:59;101276.50;;;9.47;100.00
60355;BME280;46198;51.464;-0.066;2023-04-06T02:19:27;101261.88;;;9.41;100.00
60355;BME280;46198;51.464;-0.066;2023-04-06T02:21:55;101265.28;;;9.50;100.00
60355;BME280;46198;51.464;-0.066;2023-04-06T02:24:23;101261.28;;;9.46;100.00
60355;BME280;46198;51.464;-0.066;2023-04-06T02:26:52;101260.63;;;9.44;100.00
60355;BME280;46198;51.464;-0.066;2023-04-06T02:29:20;101259.63;;;9.45;100.00
60355;BME280;46198;51.464;-0.066;2023-04-06T02:31:49;101258.56;;;9.46;100.00
60355;BME280;46198;51.464;-0.066;2023-04-06T02:34:18;101253.34;;;9.44;100.00
60355;BME280;46198;51.464;-0.066;2023-04-06T02:36:49;101248.38;;;9.48;100.00
60355;BME280;46198;51.464;-0.066;2023-04-06T02:39:17;101247.91;;;9.44;100.00
60355;BME280;46198;51.464;-0.066;2023-04-06T02:41:45;101248.78;;;9.45;100.00
60355;BME280;46198;51.464;-0.066;2023-04-06T02:44:19;101249.78;;;9.44;100.00
60355;BME280;46198;51.464;-0.066;2023-04-06T02:46:47;101239.16;;;9.42;100.00
60355;BME280;46198;51.464;-0.066;2023-04-06T02:49:15;101232.75;;;9.50;100.00
60355;BME280;46198;51.464;-0.066;2023-04-06T02:51:44;101237.53;;;9.48;100.00
60355;BME280;46198;51.464;-0.066;2023-04-06T02:54:24;101232.34;;;9.53;100.00
60355;BME280;46198;51.464;-0.066;2023-04-06T02:56:52;101228.75;;;9.46;100.00
60355;BME280;46198;51.464;-0.066;2023-04-06T02:59:24;101226.44;;;9.43;100.00
60355;BME280;46198;51.464;-0.066;2023-04-06T03:02:05;101216.44;;;9.43;100.00
60355;BME280;46198;51.464;-0.066;2023-04-06T03:04:34;101220.81;;;9.44;100.00
60355;BME280;46198;51.464;-0.066;2023-04-06T03:07:05;101212.91;;;9.43;100.00
60355;BME280;46198;51.464;-0.066;2023-04-06T03:09:37;101210.41;;;9.48;100.00
60355;BME280;46198;51.464;-0.066;2023-04-06T03:12:06;101210.66;;;9.53;100.00
60355;BME280;46198;51.464;-0.066;2023-04-06T03:14:55;101211.88;;;9.50;100.00
60355;BME280;46198;51.464;-0.066;2023-04-06T03:17:23;101203.34;;;9.53;100.00
60355;BME280;46198;51.464;-0.066;2023-04-06T03:19:53;101201.47;;;9.54;100.00
60355;BME280;46198;51.464;-0.066;2023-04-06T03:22:21;101194.38;;;9.53;100.00
60355;BME280;46198;51.464;-0.066;2023-04-06T03:24:49;101185.84;;;9.56;100.00
60355;BME280;46198;51.464;-0.066;2023-04-06T03:27:17;101189.38;;;9.50;100.00
60355;BME280;46198;51.464;-0.066;2023-04-06T03:29:46;101190.63;;;9.54;100.00
60355;BME280;46198;51.464;-0.066;2023-04-06T03:32:21;101182.28;;;9.56;100.00
60355;BME280;46198;51.464;-0.066;2023-04-06T03:34:49;101197.28;;;9.51;100.00
60355;BME280;46198;51.464;-0.066;2023-04-06T03:37:17;101190.38;;;9.49;100.00
60355;BME280;46198;51.464;-0.066;2023-04-06T03:39:51;101182.47;;;9.54;100.00
60355;BME280;46198;51.464;-0.066;2023-04-06T03:42:22;101180.19;;;9.58;100.00
60355;BME280;46198;51.464;-0.066;2023-04-06T03:44:55;101182.72;;;9.59;100.00
60355;BME280;46198;51.464;-0.066;2023-04-06T03:47:25;101167.69;;;9.63;100.00
60355;BME280;46198;51.464;-0.066;2023-04-06T03:49:57;101174.16;;;9.62;100.00
60355;BME280;46198;51.464;-0.066;2023-04-06T03:52:26;101164.78;;;9.58;100.00
60355;BME280;46198;51.464;-0.066;2023-04-06T03:54:54;101164.78;;;9.58;100.00
60355;BME280;46198;51.464;-0.066;2023-04-06T03:57:22;101171.88;;;9.66;100.00
60355;BME280;46198;51.464;-0.066;2023-04-06T03:59:49;101170.41;;;9.63;100.00
60355;BME280;46198;51.464;-0.066;2023-04-06T04:02:17;101172.72;;;9.66;100.00
60355;BME280;46198;51.464;-0.066;2023-04-06T04:04:47;101163.53;;;9.67;100.00
60355;BME280;46198;51.464;-0.066;2023-04-06T04:11:21;101150.41;;;9.71;100.00
60355;BME280;46198;51.464;-0.066;2023-04-06T04:16:49;101155.00;;;9.70;100.00
60355;BME280;46198;51.464;-0.066;2023-04-06T04:19:17;101155.63;;;9.72;100.00
60355;BME280;46198;51.464;-0.066;2023-04-06T04:21:46;101152.91;;;9.79;100.00
60355;BME280;46198;51.464;-0.066;2023-04-06T04:24:19;101153.13;;;9.77;100.00
60355;BME280;46198;51.464;-0.066;2023-04-06T04:26:47;101155.66;;;9.86;100.00
60355;BME280;46198;51.464;-0.066;2023-04-06T04:29:15;101142.88;;;9.80;100.00
60355;BME280;46198;51.464;-0.066;2023-04-06T04:31:44;101150.41;;;9.84;100.00
60355;BME280;46198;51.464;-0.066;2023-04-06T04:34:16;101149.19;;;9.80;100.00
60355;BME280;46198;51.464;-0.066;2023-04-06T04:36:47;101155.19;;;9.82;100.00
60355;BME280;46198;51.464;-0.066;2023-04-06T04:39:22;101150.84;;;9.81;100.00
60355;BME280;46198;51.464;-0.066;2023-04-06T04:41:57;101142.50;;;9.83;100.00
60355;BME280;46198;51.464;-0.066;2023-04-06T04:44:26;101142.28;;;9.77;100.00
60355;BME280;46198;51.464;-0.066;2023-04-06T04:46:54;101136.66;;;9.86;100.00
60355;BME280;46198;51.464;-0.066;2023-04-06T04:49:31;101137.91;;;9.83;100.00
60355;BME280;46198;51.464;-0.066;2023-04-06T04:52:00;101135.41;;;9.88;100.00
60355;BME280;46198;51.464;-0.066;2023-04-06T04:54:36;101139.78;;;9.89;100.00
60355;BME280;46198;51.464;-0.066;2023-04-06T04:57:04;101137.91;;;9.90;100.00
60355;BME280;46198;51.464;-0.066;2023-04-06T05:03:56;101149.38;;;9.92;100.00
60355;BME280;46198;51.464;-0.066;2023-04-06T05:06:24;101143.97;;;9.92;100.00
60355;BME280;46198;51.464;-0.066;2023-04-06T05:08:55;101140.19;;;9.93;100.00
60355;BME280;46198;51.464;-0.066;2023-04-06T05:11:23;101133.31;;;9.97;100.00
60355;BME280;46198;51.464;-0.066;2023-04-06T05:13:57;101131.00;;;10.01;100.00
60355;BME280;46198;51.464;-0.066;2023-04-06T05:16:26;101129.97;;;9.95;100.00
60355;BME280;46198;51.464;-0.066;2023-04-06T05:18:54;101120.19;;;9.94;100.00
60355;BME280;46198;51.464;-0.066;2023-04-06T05:25:53;101120.16;;;10.01;100.00
60355;BME280;46198;51.464;-0.066;2023-04-06T05:28:22;101114.34;;;9.97;100.00
60355;BME280;46198;51.464;-0.066;2023-04-06T05:30:51;101115.34;;;9.96;100.00
60355;BME280;46198;51.464;-0.066;2023-04-06T05:33:19;101114.09;;;9.98;100.00
60355;BME280;46198;51.464;-0.066;2023-04-06T05:36:01;101117.69;;;9.99;100.00
60355;BME280;46198;51.464;-0.066;2023-04-06T05:38:33;101117.03;;;9.97;100.00
60355;BME280;46198;51.464;-0.066;2023-04-06T05:41:11;101107.66;;;9.99;100.00
60355;BME280;46198;51.464;-0.066;2023-04-06T05:43:40;101111.84;;;10.02;100.00
60355;BME280;46198;51.464;-0.066;2023-04-06T05:46:08;101114.53;;;10.02;100.00
60355;BME280;46198;51.464;-0.066;2023-04-06T05:48:36;101115.56;;;10.01;100.00
60355;BME280;46198;51.464;-0.066;2023-04-06T05:51:04;101116.41;;;10.08;100.00
60355;BME280;46198;51.464;-0.066;2023-04-06T05:53:43;101118.06;;;10.09;100.00
60355;BME280;46198;51.464;-0.066;2023-04-06T05:56:12;101112.66;;;10.09;100.00
60355;BME280;46198;51.464;-0.066;2023-04-06T05:58:42;101106.78;;;10.12;100.00
60355;BME280;46198;51.464;-0.066;2023-04-06T06:01:13;101115.34;;;10.09;100.00
60355;BME280;46198;51.464;-0.066;2023-04-06T06:03:45;101113.69;;;10.08;100.00
60355;BME280;46198;51.464;-0.066;2023-04-06T06:06:13;101117.66;;;10.12;100.00
60355;BME280;46198;51.464;-0.066;2023-04-06T06:09:00;101116.84;;;10.05;100.00
60355;BME280;46198;51.464;-0.066;2023-04-06T06:11:34;101104.06;;;10.12;100.00
60355;BME280;46198;51.464;-0.066;2023-04-06T06:14:04;101104.72;;;10.14;100.00
60355;BME280;46198;51.464;-0.066;2023-04-06T06:16:36;101102.63;;;10.16;100.00
60355;BME280;46198;51.464;-0.066;2023-04-06T06:22:04;101111.41;;;10.18;100.00
60355;BME280;46198;51.464;-0.066;2023-04-06T06:27:29;101113.25;;;10.25;100.00
60355;BME280;46198;51.464;-0.066;2023-04-06T06:29:57;101117.88;;;10.24;100.00
60355;BME280;46198;51.464;-0.066;2023-04-06T06:32:28;101123.06;;;10.26;100.00
60355;BME280;46198;51.464;-0.066;2023-04-06T06:34:56;101111.84;;;10.29;100.00
60355;BME280;46198;51.464;-0.066;2023-04-06T06:37:24;101121.00;;;10.28;100.00
60355;BME280;46198;51.464;-0.066;2023-04-06T06:39:55;101114.31;;;10.24;100.00
60355;BME280;46198;51.464;-0.066;2023-04-06T06:42:23;101114.09;;;10.25;100.00
60355;BME280;46198;51.464;-0.066;2023-04-06T06:45:04;101107.44;;;10.28;100.00
60355;BME280;46198;51.464;-0.066;2023-04-06T06:47:31;101120.19;;;10.27;100.00
60355;BME280;46198;51.464;-0.066;2023-04-06T06:49:59;101114.34;;;10.37;100.00
60355;BME280;46198;51.464;-0.066;2023-04-06T06:52:29;101121.41;;;10.38;100.00
60355;BME280;46198;51.464;-0.066;2023-04-06T06:54:58;101119.34;;;10.40;100.00
60355;BME280;46198;51.464;-0.066;2023-04-06T06:57:27;101111.78;;;10.42;100.00
60355;BME280;46198;51.464;-0.066;2023-04-06T06:59:55;101122.22;;;10.52;100.00
60355;BME280;46198;51.464;-0.066;2023-04-06T07:02:24;101107.19;;;10.56;100.00
60355;BME280;46198;51.464;-0.066;2023-04-06T07:04:52;101102.38;;;10.58;100.00
60355;BME280;46198;51.464;-0.066;2023-04-06T07:07:20;101089.41;;;10.60;100.00
60355;BME280;46198;51.464;-0.066;2023-04-06T07:09:48;101089.22;;;10.61;100.00
60355;BME280;46198;51.464;-0.066;2023-04-06T07:12:16;101093.78;;;10.68;100.00
60355;BME280;46198;51.464;-0.066;2023-04-06T07:14:44;101098.56;;;10.72;100.00
60355;BME280;46198;51.464;-0.066;2023-04-06T07:17:12;101115.44;;;10.87;100.00
60355;BME280;46198;51.464;-0.066;2023-04-06T07:19:42;101113.78;;;10.86;100.00
60355;BME280;46198;51.464;-0.066;2023-04-06T07:22:10;101115.22;;;10.89;100.00
60355;BME280;46198;51.464;-0.066;2023-04-06T07:24:37;101107.69;;;10.91;100.00
60355;BME280;46198;51.464;-0.066;2023-04-06T07:27:06;101107.28;;;10.87;100.00
60355;BME280;46198;51.464;-0.066;2023-04-06T07:29:34;101110.81;;;10.95;100.00
60355;BME280;46198;51.464;-0.066;2023-04-06T07:32:02;101113.72;;;11.00;100.00
60355;BME280;46198;51.464;-0.066;2023-04-06T07:34:31;101110.53;;;11.09;100.00
60355;BME280;46198;51.464;-0.066;2023-04-06T07:37:01;101113.47;;;11.08;100.00
60355;BME280;46198;51.464;-0.066;2023-04-06T07:39:31;101113.28;;;11.03;100.00
60355;BME280;46198;51.464;-0.066;2023-04-06T07:41:59;101118.84;;;11.15;100.00
60355;BME280;46198;51.464;-0.066;2023-04-06T07:44:27;101123.06;;;11.11;100.00
60355;BME280;46198;51.464;-0.066;2023-04-06T07:46:56;101117.63;;;11.11;100.00
60355;BME280;46198;51.464;-0.066;2023-04-06T07:49:23;101114.31;;;11.08;100.00
60355;BME280;46198;51.464;-0.066;2023-04-06T07:51:52;101122.06;;;10.98;100.00
60355;BME280;46198;51.464;-0.066;2023-04-06T07:54:21;101116.19;;;11.01;100.00
60355;BME280;46198;51.464;-0.066;2023-04-06T07:56:49;101128.75;;;11.02;100.00
60355;BME280;46198;51.464;-0.066;2023-04-06T07:59:17;101126.72;;;10.91;100.00
60355;BME280;46198;51.464;-0.066;2023-04-06T08:01:45;101133.19;;;10.90;100.00
60355;BME280;46198;51.464;-0.066;2023-04-06T08:04:13;101133.38;;;10.95;100.00
60355;BME280;46198;51.464;-0.066;2023-04-06T08:06:41;101135.91;;;10.90;100.00
60355;BME280;46198;51.464;-0.066;2023-04-06T08:09:09;101136.34;;;10.87;100.00
60355;BME280;46198;51.464;-0.066;2023-04-06T08:11:38;101137.59;;;10.91;100.00
60355;BME280;46198;51.464;-0.066;2023-04-06T08:14:07;101124.59;;;10.93;100.00
60355;BME280;46198;51.464;-0.066;2023-04-06T08:16:35;101142.38;;;10.89;100.00
60355;BME280;46198;51.464;-0.066;2023-04-06T08:19:03;101139.25;;;10.92;100.00
60355;BME280;46198;51.464;-0.066;2023-04-06T08:21:31;101139.25;;;10.85;100.00
60355;BME280;46198;51.464;-0.066;2023-04-06T08:23:59;101142.63;;;10.81;100.00
60355;BME280;46198;51.464;-0.066;2023-04-06T08:26:28;101142.63;;;10.81;100.00
60355;BME280;46198;51.464;-0.066;2023-04-06T08:28:57;101137.19;;;10.81;100.00
60355;BME280;46198;51.464;-0.066;2023-04-06T08:31:25;101146.81;;;10.77;100.00
60355;BME280;46198;51.464;-0.066;2023-04-06T08:33:53;101151.41;;;10.76;100.00
60355;BME280;46198;51.464;-0.066;2023-04-06T08:36:21;101148.91;;;10.68;100.00
60355;BME280;46198;51.464;-0.066;2023-04-06T08:38:49;101141.81;;;10.74;100.00
60355;BME280;46198;51.464;-0.066;2023-04-06T08:41:17;101132.19;;;10.78;100.00
60355;BME280;46198;51.464;-0.066;2023-04-06T08:43:46;101130.94;;;10.74;100.00
60355;BME280;46198;51.464;-0.066;2023-04-06T08:46:16;101140.31;;;10.91;100.00
60355;BME280;46198;51.464;-0.066;2023-04-06T08:48:44;101135.94;;;10.77;100.00
60355;BME280;46198;51.464;-0.066;2023-04-06T08:51:15;101141.78;;;10.80;100.00
60355;BME280;46198;51.464;-0.066;2023-04-06T08:53:43;101146.38;;;10.80;100.00
60355;BME280;46198;51.464;-0.066;2023-04-06T08:56:11;101146.56;;;10.85;100.00
60355;BME280;46198;51.464;-0.066;2023-04-06T08:58:39;101137.97;;;10.88;100.00
60355;BME280;46198;51.464;-0.066;2023-04-06T09:01:08;101149.69;;;10.95;100.00
60355;BME280;46198;51.464;-0.066;2023-04-06T09:03:38;101158.16;;;11.19;100.00
60355;BME280;46198;51.464;-0.066;2023-04-06T09:06:07;101143.91;;;11.23;100.00
60355;BME280;46198;51.464;-0.066;2023-04-06T09:08:37;101142.88;;;11.24;100.00
60355;BME280;46198;51.464;-0.066;2023-04-06T09:11:06;101153.81;;;11.11;100.00
60355;BME280;46198;51.464;-0.066;2023-04-06T09:13:44;101145.59;;;11.18;100.00
60355;BME280;46198;51.464;-0.066;2023-04-06T09:16:12;101160.06;;;11.18;100.00
60355;BME280;46198;51.464;-0.066;2023-04-06T09:18:41;101147.81;;;11.34;100.00
60355;BME280;46198;51.464;-0.066;2023-04-06T09:21:09;101152.22;;;11.35;100.00
60355;BME280;46198;51.464;-0.066;2023-04-06T09:23:38;101150.53;;;11.34;100.00
60355;BME280;46198;51.464;-0.066;2023-04-06T09:26:07;101147.72;;;11.16;100.00
60355;BME280;46198;51.464;-0.066;2023-04-06T09:28:45;101156.31;;;11.06;100.00
60355;BME280;46198;51.464;-0.066;2023-04-06T09:31:13;101150.41;;;11.22;100.00
60355;BME280;46198;51.464;-0.066;2023-04-06T09:33:43;101160.44;;;11.22;100.00
60355;BME280;46198;51.464;-0.066;2023-04-06T09:36:11;101153.75;;;11.18;100.00
60355;BME280;46198;51.464;-0.066;2023-04-06T09:38:51;101153.13;;;11.22;100.00
60355;BME280;46198;51.464;-0.066;2023-04-06T09:41:22;101143.06;;;11.23;100.00
60355;BME280;46198;51.464;-0.066;2023-04-06T09:43:50;101156.66;;;11.23;100.00
60355;BME280;46198;51.464;-0.066;2023-04-06T09:46:20;101155.44;;;11.19;100.00
60355;BME280;46198;51.464;-0.066;2023-04-06T09:48:50;101148.75;;;11.15;100.00
60355;BME280;46198;51.464;-0.066;2023-04-06T09:51:19;101157.34;;;11.12;100.00
60355;BME280;46198;51.464;-0.066;2023-04-06T09:53:49;101153.81;;;11.11;100.00
60355;BME280;46198;51.464;-0.066;2023-04-06T09:56:20;101150.19;;;11.24;100.00
60355;BME280;46198;51.464;-0.066;2023-04-06T09:58:52;101153.31;;;11.21;100.00
60355;BME280;46198;51.464;-0.066;2023-04-06T10:01:21;101154.56;;;11.25;100.00
60355;BME280;46198;51.464;-0.066;2023-04-06T10:03:52;101147.94;;;11.14;100.00
60355;BME280;46198;51.464;-0.066;2023-04-06T10:06:23;101149.56;;;11.22;100.00
60355;BME280;46198;51.464;-0.066;2023-04-06T10:08:52;101145.53;;;11.38;100.00
60355;BME280;46198;51.464;-0.066;2023-04-06T10:11:22;101155.28;;;11.45;100.00
60355;BME280;46198;51.464;-0.066;2023-04-06T10:13:51;101154.88;;;11.48;100.00
60355;BME280;46198;51.464;-0.066;2023-04-06T10:16:19;101158.63;;;11.47;100.00
60355;BME280;46198;51.464;-0.066;2023-04-06T10:18:48;101152.16;;;11.48;100.00
60355;BME280;46198;51.464;-0.066;2023-04-06T10:21:21;101160.19;;;11.68;100.00
60355;BME280;46198;51.464;-0.066;2023-04-06T10:23:52;101165.31;;;11.51;100.00
60355;BME280;46198;51.464;-0.066;2023-04-06T10:26:20;101169.44;;;11.61;100.00
60355;BME280;46198;51.464;-0.066;2023-04-06T10:28:49;101165.25;;;11.65;100.00
60355;BME280;46198;51.464;-0.066;2023-04-06T10:31:23;101162.78;;;11.88;100.00
60355;BME280;46198;51.464;-0.066;2023-04-06T10:33:54;101159.53;;;12.05;100.00
60355;BME280;46198;51.464;-0.066;2023-04-06T10:36:25;101173.28;;;12.16;100.00
60355;BME280;46198;51.464;-0.066;2023-04-06T10:38:53;101166.47;;;12.26;100.00
60355;BME280;46198;51.464;-0.066;2023-04-06T10:41:22;101165.19;;;12.28;100.00
60355;BME280;46198;51.464;-0.066;2023-04-06T10:43:54;101166.44;;;12.32;100.00
60355;BME280;46198;51.464;-0.066;2023-04-06T10:46:26;101165.47;;;12.45;100.00
60355;BME280;46198;51.464;-0.066;2023-04-06T10:48:55;101176.13;;;12.47;100.00
60355;BME280;46198;51.464;-0.066;2023-04-06T10:51:25;101181.38;;;12.23;100.00
60355;BME280;46198;51.464;-0.066;2023-04-06T10:53:54;101176.19;;;12.15;100.00
60355;BME280;46198;51.464;-0.066;2023-04-06T10:56:23;101176.03;;;12.10;100.00
60355;BME280;46198;51.464;-0.066;2023-04-06T10:58:52;101181.53;;;12.28;100.00
60355;BME280;46198;51.464;-0.066;2023-04-06T11:01:22;101186.97;;;12.28;100.00
60355;BME280;46198;51.464;-0.066;2023-04-06T11:03:52;101182.91;;;12.37;100.00
60355;BME280;46198;51.464;-0.066;2023-04-06T11:06:20;101187.31;;;12.38;100.00
60355;BME280;46198;51.464;-0.066;2023-04-06T11:08:50;101181.09;;;12.31;100.00
60355;BME280;46198;51.464;-0.066;2023-04-06T11:11:18;101184.63;;;12.57;100.00
60355;BME280;46198;51.464;-0.066;2023-04-06T11:13:48;101182.41;;;12.47;100.00
60355;BME280;46198;51.464;-0.066;2023-04-06T11:16:17;101187.97;;;12.34;100.00
60355;BME280;46198;51.464;-0.066;2023-04-06T11:18:49;101183.84;;;12.50;100.00
60355;BME280;46198;51.464;-0.066;2023-04-06T11:21:17;101195.38;;;12.70;100.00
60355;BME280;46198;51.464;-0.066;2023-04-06T11:23:45;101187.53;;;12.99;100.00
60355;BME280;46198;51.464;-0.066;2023-04-06T11:26:14;101182.53;;;12.96;100.00
60355;BME280;46198;51.464;-0.066;2023-04-06T11:28:42;101188.47;;;12.93;100.00
60355;BME280;46198;51.464;-0.066;2023-04-06T11:31:11;101190.38;;;12.67;100.00
60355;BME280;46198;51.464;-0.066;2023-04-06T11:33:39;101198.66;;;12.79;100.00
60355;BME280;46198;51.464;-0.066;2023-04-06T11:36:07;101193.75;;;13.06;100.00
60355;BME280;46198;51.464;-0.066;2023-04-06T11:38:38;101189.28;;;12.93;100.00
60355;BME280;46198;51.464;-0.066;2023-04-06T11:41:06;101193.28;;;13.09;100.00
60355;BME280;46198;51.464;-0.066;2023-04-06T11:43:35;101192.84;;;13.12;100.00
60355;BME280;46198;51.464;-0.066;2023-04-06T11:46:03;101203.28;;;12.78;100.00
60355;BME280;46198;51.464;-0.066;2023-04-06T11:48:43;101200.81;;;12.70;100.00
60355;BME280;46198;51.464;-0.066;2023-04-06T11:51:11;101203.13;;;12.73;100.00
60355;BME280;46198;51.464;-0.066;2023-04-06T11:53:43;101205.41;;;12.76;100.00
60355;BME280;46198;51.464;-0.066;2023-04-06T11:56:11;101204.88;;;12.68;100.00
60355;BME280;46198;51.464;-0.066;2023-04-06T11:58:40;101205.44;;;12.70;100.00
60355;BME280;46198;51.464;-0.066;2023-04-06T12:01:08;101207.25;;;12.57;100.00
60355;BME280;46198;51.464;-0.066;2023-04-06T12:03:36;101210.94;;;12.45;100.00
60355;BME280;46198;51.464;-0.066;2023-04-06T12:06:05;101202.97;;;12.68;100.00
60355;BME280;46198;51.464;-0.066;2023-04-06T12:08:33;101208.00;;;12.64;100.00
60355;BME280;46198;51.464;-0.066;2023-04-06T12:11:01;101214.06;;;12.67;100.00
60355;BME280;46198;51.464;-0.066;2023-04-06T12:13:29;101205.72;;;12.86;100.00
60355;BME280;46198;51.464;-0.066;2023-04-06T12:15:58;101210.72;;;12.90;100.00
60355;BME280;46198;51.464;-0.066;2023-04-06T12:18:26;101216.06;;;12.96;100.00
60355;BME280;46198;51.464;-0.066;2023-04-06T12:20:54;101215.56;;;13.06;100.00
60355;BME280;46198;51.464;-0.066;2023-04-06T12:23:22;101215.03;;;13.16;100.00
60355;BME280;46198;51.464;-0.066;2023-04-06T12:25:50;101216.31;;;13.13;100.00
60355;BME280;46198;51.464;-0.066;2023-04-06T12:28:18;101216.75;;;13.10;100.00
60355;BME280;46198;51.464;-0.066;2023-04-06T12:30:50;101216.25;;;13.20;100.00
60355;BME280;46198;51.464;-0.066;2023-04-06T12:33:19;101213.28;;;13.21;100.00
60355;BME280;46198;51.464;-0.066;2023-04-06T12:35:48;101218.03;;;13.63;100.00
60355;BME280;46198;51.464;-0.066;2023-04-06T12:38:16;101212.63;;;13.44;100.00
60355;BME280;46198;51.464;-0.066;2023-04-06T12:40:44;101216.47;;;13.55;100.00
60355;BME280;46198;51.464;-0.066;2023-04-06T12:43:12;101209.22;;;13.49;100.00
60355;BME280;46198;51.464;-0.066;2023-04-06T12:45:40;101202.50;;;13.63;100.00
60355;BME280;46198;51.464;-0.066;2023-04-06T12:48:08;101200.88;;;13.74;100.00
60355;BME280;46198;51.464;-0.066;2023-04-06T12:50:37;101207.69;;;13.95;100.00
60355;BME280;46198;51.464;-0.066;2023-04-06T12:53:05;101202.13;;;14.55;100.00
60355;BME280;46198;51.464;-0.066;2023-04-06T12:55:33;101200.44;;;15.01;100.00
60355;BME280;46198;51.464;-0.066;2023-04-06T12:58:02;101195.75;;;15.25;100.00
60355;BME280;46198;51.464;-0.066;2023-04-06T13:00:30;101196.75;;;15.36;100.00
60355;BME280;46198;51.464;-0.066;2023-04-06T13:02:58;101206.88;;;15.47;100.00
60355;BME280;46198;51.464;-0.066;2023-04-06T13:05:26;101203.75;;;15.56;100.00
60355;BME280;46198;51.464;-0.066;2023-04-06T13:07:57;101209.69;;;15.00;100.00